createdAt,value
2022-10-01T00:02:16.983Z,100364.50
2022-10-01T00:04:44.645Z,100364.03
2022-10-01T00:07:15.430Z,100361.16
2022-10-01T00:09:43.149Z,100374.69
2022-10-01T00:12:10.923Z,100366.25
2022-10-01T00:14:39.628Z,100379.22
2022-10-01T00:17:07.362Z,100373.69
2022-10-01T00:19:35.050Z,100371.66
2022-10-01T00:22:02.854Z,100369.78
2022-10-01T00:24:30.520Z,100374.97
2022-10-01T00:26:58.209Z,100381.34
2022-10-01T00:29:25.919Z,100385.00
2022-10-01T00:31:53.573Z,100377.59
2022-10-01T00:34:21.259Z,100380.25
2022-10-01T00:36:49.488Z,100377.19
2022-10-01T00:39:17.198Z,100379.47
2022-10-01T00:41:44.990Z,100385.44
2022-10-01T00:44:33.208Z,100383.34
2022-10-01T00:47:14.219Z,100389.03
2022-10-01T00:49:43.501Z,100386.75
2022-10-01T00:52:16.293Z,100392.16
2022-10-01T00:54:49.465Z,100395.44
2022-10-01T00:57:21.103Z,100392.16
2022-10-01T00:59:50.622Z,100384.75
2022-10-01T01:02:18.244Z,100373.47
2022-10-01T01:04:46.213Z,100366.91
2022-10-01T01:07:14.705Z,100372.03
2022-10-01T01:09:49.582Z,100373.47
2022-10-01T01:12:33.932Z,100374.31
2022-10-01T01:15:12.377Z,100371.66
2022-10-01T01:18:09.809Z,100368.72
2022-10-01T01:21:08.146Z,100367.84
2022-10-01T01:24:02.612Z,100374.38
2022-10-01T01:26:36.863Z,100369.66
2022-10-01T01:29:17.198Z,100377.69
2022-10-01T01:31:46.853Z,100374.16
2022-10-01T01:34:23.181Z,100376.41
2022-10-01T01:36:58.719Z,100385.03
2022-10-01T01:39:29.997Z,100387.31
2022-10-01T01:42:03.786Z,100387.94
2022-10-01T01:44:37.306Z,100388.50
2022-10-01T01:47:07.553Z,100384.09
2022-10-01T01:49:36.074Z,100383.28
2022-10-01T01:52:16.072Z,100383.72
2022-10-01T01:54:49.823Z,100397.13
2022-10-01T01:57:19.933Z,100395.94
2022-10-01T01:59:47.993Z,100390.81
2022-10-01T02:02:23.083Z,100391.84
2022-10-01T02:04:56.379Z,100394.72
2022-10-01T02:07:36.346Z,100405.22
2022-10-01T02:10:25.888Z,100403.81
2022-10-01T02:13:11.523Z,100393.72
2022-10-01T02:15:56.313Z,100401.56
2022-10-01T02:18:57.287Z,100402.19
2022-10-01T02:21:40.725Z,100403.41
2022-10-01T02:24:21.146Z,100410.88
2022-10-01T02:26:51.059Z,100409.16
2022-10-01T02:29:22.148Z,100406.25
2022-10-01T02:31:53.606Z,100406.22
2022-10-01T02:34:25.619Z,100403.13
2022-10-01T02:36:55.329Z,100403.72
2022-10-01T02:39:27.309Z,100398.78
2022-10-01T02:41:56.868Z,100400.88
2022-10-01T02:44:38.214Z,100390.63
2022-10-01T02:47:45.245Z,100386.31
2022-10-01T02:50:14.270Z,100379.50
2022-10-01T02:52:58.668Z,100372.34
2022-10-01T02:55:47.400Z,100371.94
2022-10-01T02:58:15.097Z,100371.13
2022-10-01T03:00:42.749Z,100367.63
2022-10-01T03:03:10.408Z,100362.28
2022-10-01T03:05:38.070Z,100364.34
2022-10-01T03:08:05.691Z,100350.81
2022-10-01T03:10:33.858Z,100355.75
2022-10-01T03:13:01.968Z,100354.53
2022-10-01T03:15:29.612Z,100353.28
2022-10-01T03:17:57.186Z,100343.25
2022-10-01T03:20:24.790Z,100339.53
2022-10-01T03:22:52.671Z,100330.69
2022-10-01T03:25:20.225Z,100330.09
2022-10-01T03:27:52.336Z,100341.78
2022-10-01T03:30:20.101Z,100325.16
2022-10-01T03:32:47.690Z,100322.66
2022-10-01T03:35:15.572Z,100330.03
2022-10-01T03:37:43.153Z,100332.09
2022-10-01T03:40:10.891Z,100325.09
2022-10-01T03:42:38.771Z,100326.94
2022-10-01T03:45:06.863Z,100339.66
2022-10-01T03:47:34.440Z,100353.22
2022-10-01T03:50:02.082Z,100347.06
2022-10-01T03:52:30.323Z,100350.75
2022-10-01T03:54:58.279Z,100355.38
2022-10-01T03:57:25.884Z,100357.84
2022-10-01T03:59:53.488Z,100366.84
2022-10-01T04:02:22.136Z,100362.09
2022-10-01T04:04:49.839Z,100358.78
2022-10-01T04:07:17.478Z,100354.50
2022-10-01T04:09:45.143Z,100356.25
2022-10-01T04:12:12.821Z,100352.97
2022-10-01T04:14:40.389Z,100364.22
2022-10-01T04:17:08.018Z,100366.81
2022-10-01T04:19:35.739Z,100359.38
2022-10-01T04:22:05.763Z,100363.25
2022-10-01T04:24:36.360Z,100353.38
2022-10-01T04:27:04.017Z,100352.13
2022-10-01T04:29:31.558Z,100354.34
2022-10-01T04:31:59.478Z,100348.53
2022-10-01T04:34:47.073Z,100347.94
2022-10-01T04:37:14.719Z,100358.13
2022-10-01T04:39:42.238Z,100356.69
2022-10-01T04:42:09.843Z,100346.22
2022-10-01T04:44:37.391Z,100345.56
2022-10-01T04:47:05.231Z,100351.13
2022-10-01T04:49:33.651Z,100346.97
2022-10-01T04:52:01.471Z,100348.00
2022-10-01T04:54:29.073Z,100350.84
2022-10-01T04:56:58.411Z,100346.72
2022-10-01T04:59:26.079Z,100344.25
2022-10-01T05:01:53.786Z,100346.13
2022-10-01T05:04:21.360Z,100347.09
2022-10-01T05:06:49.127Z,100349.16
2022-10-01T05:09:16.782Z,100346.66
2022-10-01T05:11:44.410Z,100345.03
2022-10-01T05:14:12.449Z,100346.88
2022-10-01T05:16:40.128Z,100338.22
2022-10-01T05:19:07.882Z,100350.75
2022-10-01T05:21:37.519Z,100348.06
2022-10-01T05:24:05.831Z,100354.41
2022-10-01T05:26:33.630Z,100350.91
2022-10-01T05:29:01.472Z,100351.72
2022-10-01T05:31:29.129Z,100354.59
2022-10-01T05:33:56.939Z,100353.59
2022-10-01T05:36:24.655Z,100354.22
2022-10-01T05:38:52.560Z,100354.66
2022-10-01T05:41:20.334Z,100359.81
2022-10-01T05:43:49.443Z,100362.09
2022-10-01T05:46:17.283Z,100357.38
2022-10-01T05:48:45.419Z,100358.84
2022-10-01T05:51:16.324Z,100361.94
2022-10-01T05:53:47.089Z,100360.97
2022-10-01T05:56:17.824Z,100364.88
2022-10-01T05:58:46.953Z,100359.00
2022-10-01T06:01:14.680Z,100361.97
2022-10-01T06:03:43.030Z,100361.63
2022-10-01T06:06:10.781Z,100360.09
2022-10-01T06:08:38.416Z,100361.22
2022-10-01T06:11:06.291Z,100365.19
2022-10-01T06:13:35.982Z,100360.97
2022-10-01T06:16:03.746Z,100362.06
2022-10-01T06:18:31.425Z,100358.00
2022-10-01T06:20:59.942Z,100360.94
2022-10-01T06:23:28.141Z,100354.84
2022-10-01T06:25:55.794Z,100350.53
2022-10-01T06:28:23.458Z,100345.84
2022-10-01T06:30:51.104Z,100348.53
2022-10-01T06:33:19.491Z,100351.84
2022-10-01T06:35:51.734Z,100353.69
2022-10-01T06:38:21.903Z,100348.53
2022-10-01T06:41:00.602Z,100345.22
2022-10-01T06:43:30.263Z,100343.16
2022-10-01T06:46:02.590Z,100352.19
2022-10-01T06:48:31.561Z,100350.94
2022-10-01T06:50:59.890Z,100348.69
2022-10-01T06:53:28.686Z,100352.38
2022-10-01T06:55:56.345Z,100342.69
2022-10-01T06:58:28.411Z,100344.16
2022-10-01T07:01:03.543Z,100341.28
2022-10-01T07:03:31.675Z,100341.06
2022-10-01T07:06:04.918Z,100342.28
2022-10-01T07:08:33.513Z,100339.03
2022-10-01T07:11:04.986Z,100348.94
2022-10-01T07:13:32.765Z,100341.63
2022-10-01T07:16:03.745Z,100340.03
2022-10-01T07:18:31.602Z,100337.53
2022-10-01T07:20:59.676Z,100343.25
2022-10-01T07:23:27.361Z,100337.47
2022-10-01T07:25:55.088Z,100341.56
2022-10-01T07:28:25.817Z,100344.66
2022-10-01T07:31:06.927Z,100343.84
2022-10-01T07:33:34.762Z,100338.72
2022-10-01T07:36:04.404Z,100339.53
2022-10-01T07:38:33.843Z,100341.00
2022-10-01T07:41:03.053Z,100340.22
2022-10-01T07:43:32.645Z,100331.78
2022-10-01T07:46:02.280Z,100337.75
2022-10-01T07:48:31.227Z,100345.59
2022-10-01T07:50:58.919Z,100340.25
2022-10-01T07:53:27.153Z,100344.56
2022-10-01T07:55:54.883Z,100345.19
2022-10-01T07:58:24.371Z,100341.88
2022-10-01T08:00:58.417Z,100344.56
2022-10-01T08:03:26.368Z,100356.28
2022-10-01T08:05:54.802Z,100357.06
2022-10-01T08:08:22.644Z,100354.38
2022-10-01T08:10:51.138Z,100357.28
2022-10-01T08:13:18.911Z,100352.34
2022-10-01T08:15:53.508Z,100352.31
2022-10-01T08:18:22.662Z,100345.94
2022-10-01T08:20:50.739Z,100344.63
2022-10-01T08:23:18.812Z,100333.00
2022-10-01T08:25:48.120Z,100335.63
2022-10-01T08:28:16.625Z,100325.84
2022-10-01T08:30:44.494Z,100326.78
2022-10-01T08:33:13.657Z,100323.59
2022-10-01T08:35:43.718Z,100325.63
2022-10-01T08:38:13.197Z,100318.19
2022-10-01T08:40:50.115Z,100320.91
2022-10-01T08:43:36.537Z,100305.91
2022-10-01T08:46:13.919Z,100305.88
2022-10-01T08:49:02.960Z,100299.41
2022-10-01T08:51:45.782Z,100306.47
2022-10-01T08:54:43.758Z,100299.53
2022-10-01T08:57:25.705Z,100302.94
2022-10-01T08:59:57.970Z,100302.91
2022-10-01T09:02:28.810Z,100295.09
2022-10-01T09:05:03.143Z,100292.16
2022-10-01T09:07:52.977Z,100289.84
2022-10-01T09:10:29.698Z,100285.63
2022-10-01T09:13:22.205Z,100288.63
2022-10-01T09:16:11.343Z,100280.78
2022-10-01T09:19:23.076Z,100273.25
2022-10-01T09:21:58.183Z,100275.28
2022-10-01T09:24:42.973Z,100271.00
2022-10-01T09:27:15.500Z,100271.38
2022-10-01T09:30:16.195Z,100272.00
2022-10-01T09:32:50.993Z,100264.38
2022-10-01T09:35:33.007Z,100274.75
2022-10-01T09:38:09.397Z,100272.88
2022-10-01T09:40:46.884Z,100270.66
2022-10-01T09:43:15.385Z,100268.25
2022-10-01T09:45:43.205Z,100268.69
2022-10-01T09:48:25.075Z,100267.19
2022-10-01T09:50:59.283Z,100270.47
2022-10-01T09:53:35.296Z,100266.34
2022-10-01T09:56:15.065Z,100266.28
2022-10-01T09:58:48.375Z,100261.97
2022-10-01T10:01:27.306Z,100269.03
2022-10-01T10:03:58.477Z,100266.56
2022-10-01T10:06:28.417Z,100261.50
2022-10-01T10:08:58.466Z,100261.97
2022-10-01T10:11:29.300Z,100250.69
2022-10-01T10:14:02.582Z,100248.44
2022-10-01T10:16:48.149Z,100251.75
2022-10-01T10:19:22.927Z,100247.44
2022-10-01T10:21:57.272Z,100253.19
2022-10-01T10:24:33.773Z,100250.44
2022-10-01T10:27:04.371Z,100246.84
2022-10-01T10:29:37.173Z,100242.94
2022-10-01T10:32:21.324Z,100238.81
2022-10-01T10:34:49.896Z,100229.63
2022-10-01T10:37:23.597Z,100224.44
2022-10-01T10:39:52.524Z,100210.66
2022-10-01T10:42:22.860Z,100212.38
2022-10-01T10:44:54.805Z,100199.91
2022-10-01T10:47:24.485Z,100202.38
2022-10-01T10:49:57.109Z,100204.38
2022-10-01T10:52:37.005Z,100190.91
2022-10-01T10:55:19.736Z,100193.78
2022-10-01T10:57:47.877Z,100186.97
2022-10-01T11:00:27.096Z,100188.66
2022-10-01T11:03:00.195Z,100190.91
2022-10-01T11:05:32.858Z,100183.84
2022-10-01T11:08:07.357Z,100183.16
2022-10-01T11:10:59.820Z,100178.72
2022-10-01T11:13:27.658Z,100168.53
2022-10-01T11:16:02.844Z,100175.03
2022-10-01T11:18:36.902Z,100167.63
2022-10-01T11:21:25.932Z,100156.69
2022-10-01T11:24:11.701Z,100156.84
2022-10-01T11:27:06.403Z,100147.81
2022-10-01T11:29:44.256Z,100147.00
2022-10-01T11:32:50.042Z,100137.38
2022-10-01T11:35:29.081Z,100135.88
2022-10-01T11:37:59.991Z,100131.38
2022-10-01T11:40:33.525Z,100117.59
2022-10-01T11:43:11.449Z,100104.19
2022-10-01T11:45:47.145Z,100103.56
2022-10-01T11:48:31.046Z,100090.50
2022-10-01T11:51:07.899Z,100088.28
2022-10-01T11:53:45.601Z,100087.88
2022-10-01T11:56:46.360Z,100087.31
2022-10-01T11:59:25.079Z,100081.38
2022-10-01T12:02:02.341Z,100085.44
2022-10-01T12:04:39.033Z,100080.72
2022-10-01T12:07:38.532Z,100081.22
2022-10-01T12:10:38.316Z,100063.34
2022-10-01T12:13:33.001Z,100059.59
2022-10-01T12:16:13.132Z,100055.91
2022-10-01T12:18:40.993Z,100043.44
2022-10-01T12:21:26.951Z,100065.47
2022-10-01T12:24:04.149Z,100062.53
2022-10-01T12:26:45.308Z,100059.94
2022-10-01T12:29:24.950Z,100056.22
2022-10-01T12:32:04.926Z,100057.38
2022-10-01T12:34:45.119Z,100046.63
2022-10-01T12:37:33.432Z,100045.06
2022-10-01T12:40:19.762Z,100024.31
2022-10-01T12:43:22.779Z,100021.09
2022-10-01T12:46:18.418Z,100023.31
2022-10-01T12:48:56.941Z,100023.53
2022-10-01T12:51:53.624Z,100025.16
2022-10-01T12:54:49.034Z,100015.34
2022-10-01T12:57:50.280Z,100013.38
2022-10-01T13:00:25.115Z,100005.78
2022-10-01T13:02:53.350Z,99996.06
2022-10-01T13:05:24.054Z,99999.81
2022-10-01T13:08:14.722Z,99986.38
2022-10-01T13:10:54.080Z,99985.31
2022-10-01T13:13:27.239Z,99991.81
2022-10-01T13:16:07.184Z,99994.38
2022-10-01T13:18:42.213Z,99990.75
2022-10-01T13:21:48.052Z,99978.84
2022-10-01T13:24:31.093Z,99985.97
2022-10-01T13:27:05.897Z,99982.22
2022-10-01T13:29:50.829Z,99976.50
2022-10-01T13:32:34.371Z,99974.88
2022-10-01T13:35:21.487Z,99977.19
2022-10-01T13:37:49.164Z,99974.41
2022-10-01T13:40:35.697Z,99970.66
2022-10-01T13:43:18.443Z,99971.00
2022-10-01T13:45:49.043Z,99965.41
2022-10-01T13:48:26.341Z,99971.72
2022-10-01T13:51:07.396Z,99953.25
2022-10-01T13:53:41.189Z,99955.69
2022-10-01T13:56:30.216Z,99952.88
2022-10-01T13:58:58.311Z,99954.16
2022-10-01T14:01:40.588Z,99947.25
2022-10-01T14:04:26.682Z,99946.31
2022-10-01T14:07:02.687Z,99946.56
2022-10-01T14:09:52.891Z,99939.31
2022-10-01T14:12:47.717Z,99937.91
2022-10-01T14:15:38.713Z,99930.81
2022-10-01T14:18:30.799Z,99919.38
2022-10-01T14:21:07.872Z,99923.44
2022-10-01T14:23:50.113Z,99914.66
2022-10-01T14:26:39.972Z,99919.88
2022-10-01T14:29:17.162Z,99909.50
2022-10-01T14:32:21.206Z,99913.91
2022-10-01T14:35:21.173Z,99911.97
2022-10-01T14:37:50.448Z,99910.78
2022-10-01T14:40:21.476Z,99908.69
2022-10-01T14:42:59.372Z,99897.38
2022-10-01T14:45:28.420Z,99905.75
2022-10-01T14:48:07.261Z,99896.50
2022-10-01T14:50:37.521Z,99899.63
2022-10-01T14:53:06.947Z,99887.06
2022-10-01T14:55:35.341Z,99891.47
2022-10-01T14:58:05.378Z,99882.00
2022-10-01T15:00:33.605Z,99879.34
2022-10-01T15:03:04.268Z,99875.38
2022-10-01T15:05:34.367Z,99876.41
2022-10-01T15:08:23.932Z,99878.63
2022-10-01T15:10:56.509Z,99874.13
2022-10-01T15:13:29.204Z,99878.38
2022-10-01T15:15:57.138Z,99871.78
2022-10-01T15:18:26.125Z,99860.31
2022-10-01T15:21:00.085Z,99865.66
2022-10-01T15:23:30.703Z,99858.31
2022-10-01T15:26:01.652Z,99861.22
2022-10-01T15:28:33.034Z,99853.25
2022-10-01T15:31:06.457Z,99849.59
2022-10-01T15:33:37.371Z,99852.75
2022-10-01T15:36:07.761Z,99845.16
2022-10-01T15:38:36.641Z,99840.69
2022-10-01T15:41:29.909Z,99834.28
2022-10-01T15:43:54.241Z,99830.78
2022-10-01T15:46:35.507Z,99822.31
2022-10-01T15:49:24.348Z,99818.22
2022-10-01T15:52:23.331Z,99816.59
2022-10-01T15:54:59.338Z,99820.88
2022-10-01T15:57:30.365Z,99821.78
2022-10-01T15:59:59.094Z,99823.84
2022-10-01T16:02:30.522Z,99816.88
2022-10-01T16:05:09.193Z,99819.19
2022-10-01T16:07:38.095Z,99821.09
2022-10-01T16:10:34.705Z,99818.44
2022-10-01T16:13:27.292Z,99813.91
2022-10-01T16:16:07.499Z,99803.63
2022-10-01T16:18:37.730Z,99811.72
2022-10-01T16:21:07.159Z,99794.38
2022-10-01T16:23:48.179Z,99788.22
2022-10-01T16:26:33.627Z,99781.44
2022-10-01T16:29:07.336Z,99770.38
2022-10-01T16:31:37.076Z,99772.06
2022-10-01T16:34:11.265Z,99765.59
2022-10-01T16:36:39.398Z,99761.94
2022-10-01T16:39:07.616Z,99759.50
2022-10-01T16:41:36.137Z,99762.78
2022-10-01T16:44:05.684Z,99760.94
2022-10-01T16:46:33.606Z,99754.34
2022-10-01T16:49:01.362Z,99757.28
2022-10-01T16:51:29.230Z,99763.22
2022-10-01T16:53:57.241Z,99757.63
2022-10-01T16:56:27.315Z,99753.09
2022-10-01T16:58:55.288Z,99757.81
2022-10-01T17:01:23.301Z,99752.00
2022-10-01T17:03:51.066Z,99753.25
2022-10-01T17:06:18.795Z,99754.44
2022-10-01T17:08:49.173Z,99752.16
2022-10-01T17:11:18.216Z,99743.91
2022-10-01T17:13:46.048Z,99740.78
2022-10-01T17:16:13.871Z,99740.41
2022-10-01T17:18:44.264Z,99738.53
2022-10-01T17:21:14.208Z,99735.06
2022-10-01T17:23:53.389Z,99731.94
2022-10-01T17:26:35.571Z,99715.25
2022-10-01T17:29:03.679Z,99719.34
2022-10-01T17:31:31.537Z,99708.03
2022-10-01T17:34:01.887Z,99711.16
2022-10-01T17:36:34.239Z,99710.97
2022-10-01T17:39:03.495Z,99708.50
2022-10-01T17:41:31.534Z,99710.34
2022-10-01T17:43:59.252Z,99709.53
2022-10-01T17:46:27.188Z,99715.13
2022-10-01T17:49:02.153Z,99712.22
2022-10-01T17:51:30.181Z,99712.00
2022-10-01T17:53:58.437Z,99716.31
2022-10-01T17:56:26.239Z,99716.91
2022-10-01T17:58:54.926Z,99720.97
2022-10-01T18:01:23.023Z,99720.16
2022-10-01T18:03:55.908Z,99715.41
2022-10-01T18:06:24.809Z,99707.47
2022-10-01T18:08:56.814Z,99704.19
2022-10-01T18:11:27.334Z,99706.28
2022-10-01T18:13:55.289Z,99706.16
2022-10-01T18:16:23.904Z,99711.25
2022-10-01T18:21:48.405Z,99694.84
2022-10-01T18:24:17.057Z,99700.84
2022-10-01T18:26:45.921Z,99699.44
2022-10-01T18:29:19.468Z,99693.88
2022-10-01T18:31:52.634Z,99685.41
2022-10-01T18:34:47.866Z,99684.22
2022-10-01T18:37:15.577Z,99682.88
2022-10-01T18:39:45.770Z,99684.72
2022-10-01T18:42:19.499Z,99680.22
2022-10-01T18:44:57.096Z,99681.03
2022-10-01T18:47:35.111Z,99675.88
2022-10-01T18:50:25.273Z,99668.66
2022-10-01T18:52:52.844Z,99658.03
2022-10-01T18:55:36.416Z,99664.00
2022-10-01T18:58:26.013Z,99672.22
2022-10-01T19:01:09.108Z,99666.31
2022-10-01T19:04:02.215Z,99671.66
2022-10-01T19:06:45.372Z,99663.22
2022-10-01T19:09:27.332Z,99667.31
2022-10-01T19:12:16.388Z,99654.41
2022-10-01T19:15:11.013Z,99659.38
2022-10-01T19:17:54.232Z,99656.34
2022-10-01T19:20:46.379Z,99648.97
2022-10-01T19:23:46.347Z,99654.13
2022-10-01T19:26:31.775Z,99649.56
2022-10-01T19:29:17.960Z,99649.34
2022-10-01T19:31:51.961Z,99637.81
2022-10-01T19:34:30.473Z,99648.31
2022-10-01T19:37:06.332Z,99640.28
2022-10-01T19:39:39.560Z,99637.81
2022-10-01T19:42:12.565Z,99633.91
2022-10-01T19:44:46.336Z,99632.28
2022-10-01T19:47:29.259Z,99627.28
2022-10-01T19:50:06.571Z,99625.66
2022-10-01T19:52:40.153Z,99624.63
2022-10-01T19:55:16.158Z,99620.69
2022-10-01T19:57:44.851Z,99619.63
2022-10-01T20:00:43.176Z,99619.63
2022-10-01T20:06:43.550Z,99626.69
2022-10-01T20:09:27.536Z,99621.34
2022-10-01T20:12:12.859Z,99626.25
2022-10-01T20:15:23.683Z,99621.72
2022-10-01T20:18:28.161Z,99624.63
2022-10-01T20:21:30.101Z,99624.69
2022-10-01T20:24:35.552Z,99624.34
2022-10-01T20:28:12.071Z,99625.34
2022-10-01T20:31:20.212Z,99624.78
2022-10-01T20:34:13.602Z,99637.31
2022-10-01T20:37:40.313Z,99625.28
2022-10-01T20:40:29.488Z,99626.09
2022-10-01T20:43:09.501Z,99620.88
2022-10-01T20:45:40.554Z,99615.09
2022-10-01T20:51:37.443Z,99609.75
2022-10-01T20:54:13.780Z,99608.56
2022-10-01T20:57:08.695Z,99612.28
2022-10-01T20:59:41.270Z,99596.09
2022-10-01T21:02:17.779Z,99602.47
2022-10-01T21:04:57.092Z,99600.84
2022-10-01T21:07:38.576Z,99602.53
2022-10-01T21:10:36.516Z,99605.00
2022-10-01T21:13:31.853Z,99609.31
2022-10-01T21:16:37.921Z,99616.69
2022-10-01T21:19:31.023Z,99621.13
2022-10-01T21:22:29.696Z,99627.88
2022-10-01T21:25:16.703Z,99648.59
2022-10-01T21:28:00.270Z,99660.13
2022-10-01T21:30:36.252Z,99655.56
2022-10-01T21:33:19.042Z,99651.72
2022-10-01T21:35:58.481Z,99653.94
2022-10-01T21:38:37.685Z,99658.50
2022-10-01T21:41:27.798Z,99659.31
2022-10-01T21:44:16.356Z,99659.09
2022-10-01T21:47:03.674Z,99663.47
2022-10-01T21:50:02.142Z,99659.66
2022-10-01T21:52:45.475Z,99659.28
2022-10-01T21:55:31.351Z,99663.16
2022-10-01T21:58:10.933Z,99656.53
2022-10-01T22:00:38.942Z,99656.97
2022-10-01T22:03:19.895Z,99654.53
2022-10-01T22:05:53.241Z,99662.56
2022-10-01T22:08:29.591Z,99661.16
2022-10-01T22:11:02.844Z,99652.25
2022-10-01T22:13:35.720Z,99650.38
2022-10-01T22:16:16.101Z,99655.28
2022-10-01T22:18:49.223Z,99661.25
2022-10-01T22:21:31.050Z,99656.88
2022-10-01T22:24:15.521Z,99658.50
2022-10-01T22:26:49.311Z,99663.91
2022-10-01T22:29:21.858Z,99654.09
2022-10-01T22:31:54.355Z,99660.09
2022-10-01T22:34:26.201Z,99656.00
2022-10-01T22:37:04.759Z,99653.50
2022-10-01T22:39:42.722Z,99653.06
2022-10-01T22:42:42.682Z,99661.88
2022-10-01T22:45:15.684Z,99666.25
2022-10-01T22:48:07.646Z,99662.50
2022-10-01T22:50:46.692Z,99665.22
2022-10-01T22:53:14.420Z,99666.09
2022-10-01T22:55:55.397Z,99673.72
2022-10-01T22:58:38.424Z,99675.63
2022-10-01T23:01:33.969Z,99670.63
2022-10-01T23:04:26.419Z,99679.66
2022-10-01T23:07:28.671Z,99678.47
2022-10-01T23:10:08.463Z,99685.72
2022-10-01T23:13:05.513Z,99678.28
2022-10-01T23:15:49.676Z,99676.94
2022-10-01T23:18:34.573Z,99672.03
2022-10-01T23:21:10.141Z,99680.59
2022-10-01T23:23:40.792Z,99680.38
2022-10-01T23:26:46.521Z,99682.75
2022-10-01T23:29:19.482Z,99679.72
2022-10-01T23:32:07.350Z,99682.38
2022-10-01T23:34:54.532Z,99684.06
2022-10-01T23:37:47.619Z,99679.94
2022-10-01T23:40:20.890Z,99676.22
2022-10-01T23:43:05.625Z,99688.94
2022-10-01T23:45:52.930Z,99694.28
2022-10-01T23:48:31.078Z,99683.00
2022-10-01T23:51:35.830Z,99693.31
2022-10-01T23:54:27.347Z,99694.38
2022-10-01T23:57:00.537Z,99694.00
2022-10-01T23:59:55.690Z,99687.03
